sensor_id;sensor_type;location;lat;lon;timestamp;P1;durP1;ratioP1;P2;durP2;ratioP2
46505;SDS011;32220;49.808;9.968;2024-03-06T08:29:05;24.57;;;13.07;;
46505;SDS011;32220;49.808;9.968;2024-03-06T08:31:33;19.67;;;11.67;;
46505;SDS011;32220;49.808;9.968;2024-03-06T08:34:00;18.13;;;11.73;;
46505;SDS011;32220;49.808;9.968;2024-03-06T08:36:28;18.90;;;11.53;;
46505;SDS011;32220;49.808;9.968;2024-03-06T08:38:55;16.97;;;10.97;;
46505;SDS011;32220;49.808;9.968;2024-03-06T08:41:22;16.23;;;10.87;;
46505;SDS011;32220;49.808;9.968;2024-03-06T08:43:50;15.70;;;11.13;;
46505;SDS011;32220;49.808;9.968;2024-03-06T08:46:19;16.87;;;10.80;;
46505;SDS011;32220;49.808;9.968;2024-03-06T08:48:46;17.43;;;10.67;;
46505;SDS011;32220;49.808;9.968;2024-03-06T08:51:15;14.87;;;9.63;;
46505;SDS011;32220;49.808;9.968;2024-03-06T08:53:43;14.30;;;9.83;;
46505;SDS011;32220;49.808;9.968;2024-03-06T08:56:10;15.93;;;9.80;;
46505;SDS011;32220;49.808;9.968;2024-03-06T08:58:37;13.77;;;9.73;;
46505;SDS011;32220;49.808;9.968;2024-03-06T09:01:05;14.77;;;9.17;;
46505;SDS011;32220;49.808;9.968;2024-03-06T09:03:34;13.97;;;9.13;;
46505;SDS011;32220;49.808;9.968;2024-03-06T09:06:01;18.00;;;12.27;;
46505;SDS011;32220;49.808;9.968;2024-03-06T09:08:29;20.00;;;12.17;;
46505;SDS011;32220;49.808;9.968;2024-03-06T09:10:57;13.97;;;9.60;;
46505;SDS011;32220;49.808;9.968;2024-03-06T09:13:25;13.77;;;9.90;;
46505;SDS011;32220;49.808;9.968;2024-03-06T09:15:52;16.50;;;10.30;;
46505;SDS011;32220;49.808;9.968;2024-03-06T09:18:20;13.33;;;8.80;;
46505;SDS011;32220;49.808;9.968;2024-03-06T09:20:48;15.07;;;9.90;;
46505;SDS011;32220;49.808;9.968;2024-03-06T09:23:16;16.93;;;10.20;;
46505;SDS011;32220;49.808;9.968;2024-03-06T09:25:43;15.40;;;9.63;;
46505;SDS011;32220;49.808;9.968;2024-03-06T09:28:11;14.80;;;10.20;;
46505;SDS011;32220;49.808;9.968;2024-03-06T09:30:39;13.80;;;9.80;;
46505;SDS011;32220;49.808;9.968;2024-03-06T09:33:07;16.13;;;9.83;;
46505;SDS011;32220;49.808;9.968;2024-03-06T09:35:35;11.87;;;9.40;;
46505;SDS011;32220;49.808;9.968;2024-03-06T09:38:04;12.60;;;9.40;;
46505;SDS011;32220;49.808;9.968;2024-03-06T09:40:31;16.17;;;9.77;;
46505;SDS011;32220;49.808;9.968;2024-03-06T09:42:59;17.77;;;11.03;;
46505;SDS011;32220;49.808;9.968;2024-03-06T09:45:26;16.43;;;10.27;;
46505;SDS011;32220;49.808;9.968;2024-03-06T09:47:54;15.67;;;10.03;;
46505;SDS011;32220;49.808;9.968;2024-03-06T09:50:22;17.70;;;10.13;;
46505;SDS011;32220;49.808;9.968;2024-03-06T09:52:52;14.33;;;10.10;;
46505;SDS011;32220;49.808;9.968;2024-03-06T09:55:23;15.53;;;10.27;;
46505;SDS011;32220;49.808;9.968;2024-03-06T09:57:51;15.73;;;9.60;;
46505;SDS011;32220;49.808;9.968;2024-03-06T10:00:19;15.97;;;10.33;;
46505;SDS011;32220;49.808;9.968;2024-03-06T10:02:48;13.87;;;8.77;;
46505;SDS011;32220;49.808;9.968;2024-03-06T10:05:22;13.90;;;9.40;;
46505;SDS011;32220;49.808;9.968;2024-03-06T10:07:50;15.53;;;10.53;;
46505;SDS011;32220;49.808;9.968;2024-03-06T10:10:18;15.63;;;10.30;;
46505;SDS011;32220;49.808;9.968;2024-03-06T10:12:50;12.57;;;8.77;;
46505;SDS011;32220;49.808;9.968;2024-03-06T10:15:18;12.30;;;9.27;;
46505;SDS011;32220;49.808;9.968;2024-03-06T10:17:48;12.53;;;8.57;;
46505;SDS011;32220;49.808;9.968;2024-03-06T10:20:19;15.93;;;10.20;;
46505;SDS011;32220;49.808;9.968;2024-03-06T10:22:48;15.10;;;10.00;;
46505;SDS011;32220;49.808;9.968;2024-03-06T10:25:18;15.40;;;9.80;;
46505;SDS011;32220;49.808;9.968;2024-03-06T10:27:47;12.90;;;9.13;;
46505;SDS011;32220;49.808;9.968;2024-03-06T10:30:33;15.83;;;10.20;;
46505;SDS011;32220;49.808;9.968;2024-03-06T10:33:02;16.17;;;11.00;;
46505;SDS011;32220;49.808;9.968;2024-03-06T10:35:30;14.93;;;10.00;;
46505;SDS011;32220;49.808;9.968;2024-03-06T10:37:58;14.80;;;9.80;;
46505;SDS011;32220;49.808;9.968;2024-03-06T10:40:27;17.23;;;10.23;;
46505;SDS011;32220;49.808;9.968;2024-03-06T10:42:58;14.37;;;9.97;;
46505;SDS011;32220;49.808;9.968;2024-03-06T10:45:31;15.57;;;10.30;;
46505;SDS011;32220;49.808;9.968;2024-03-06T10:48:07;13.93;;;9.80;;
46505;SDS011;32220;49.808;9.968;2024-03-06T10:50:38;11.47;;;9.03;;
46505;SDS011;32220;49.808;9.968;2024-03-06T10:53:07;13.40;;;10.10;;
46505;SDS011;32220;49.808;9.968;2024-03-06T10:55:37;16.07;;;11.07;;
46505;SDS011;32220;49.808;9.968;2024-03-06T10:58:05;15.50;;;10.23;;
46505;SDS011;32220;49.808;9.968;2024-03-06T11:00:37;12.53;;;9.60;;
46505;SDS011;32220;49.808;9.968;2024-03-06T11:03:07;14.20;;;9.70;;
46505;SDS011;32220;49.808;9.968;2024-03-06T11:05:38;12.50;;;9.17;;
46505;SDS011;32220;49.808;9.968;2024-03-06T11:08:06;12.60;;;9.37;;
46505;SDS011;32220;49.808;9.968;2024-03-06T11:10:35;15.00;;;10.43;;
46505;SDS011;32220;49.808;9.968;2024-03-06T11:13:08;14.97;;;10.30;;
46505;SDS011;32220;49.808;9.968;2024-03-06T11:15:50;12.80;;;9.33;;
46505;SDS011;32220;49.808;9.968;2024-03-06T11:24:12;17.00;;;10.17;;
46505;SDS011;32220;49.808;9.968;2024-03-06T11:26:42;17.27;;;10.73;;
46505;SDS011;32220;49.808;9.968;2024-03-06T11:29:10;16.80;;;10.60;;
46505;SDS011;32220;49.808;9.968;2024-03-06T11:31:38;14.40;;;9.30;;
46505;SDS011;32220;49.808;9.968;2024-03-06T11:34:06;15.40;;;10.20;;
46505;SDS011;32220;49.808;9.968;2024-03-06T11:36:35;13.53;;;9.63;;
46505;SDS011;32220;49.808;9.968;2024-03-06T11:39:03;12.97;;;9.23;;
46505;SDS011;32220;49.808;9.968;2024-03-06T11:41:45;14.03;;;10.23;;
46505;SDS011;32220;49.808;9.968;2024-03-06T11:44:14;15.50;;;10.40;;
46505;SDS011;32220;49.808;9.968;2024-03-06T11:46:44;13.37;;;9.47;;
46505;SDS011;32220;49.808;9.968;2024-03-06T11:49:16;14.57;;;10.07;;
46505;SDS011;32220;49.808;9.968;2024-03-06T11:51:46;14.53;;;9.80;;
46505;SDS011;32220;49.808;9.968;2024-03-06T11:54:14;15.13;;;10.23;;
46505;SDS011;32220;49.808;9.968;2024-03-06T11:56:43;12.33;;;8.90;;
46505;SDS011;32220;49.808;9.968;2024-03-06T11:59:12;14.20;;;9.17;;
46505;SDS011;32220;49.808;9.968;2024-03-06T12:01:40;15.40;;;10.47;;
46505;SDS011;32220;49.808;9.968;2024-03-06T12:04:09;15.80;;;10.37;;
46505;SDS011;32220;49.808;9.968;2024-03-06T12:06:37;16.17;;;10.60;;
46505;SDS011;32220;49.808;9.968;2024-03-06T12:09:05;14.43;;;10.00;;
46505;SDS011;32220;49.808;9.968;2024-03-06T12:11:36;14.37;;;9.83;;
46505;SDS011;32220;49.808;9.968;2024-03-06T12:14:04;12.60;;;9.70;;
46505;SDS011;32220;49.808;9.968;2024-03-06T12:16:32;14.60;;;10.30;;
46505;SDS011;32220;49.808;9.968;2024-03-06T12:18:59;14.60;;;10.13;;
46505;SDS011;32220;49.808;9.968;2024-03-06T12:21:29;14.47;;;10.47;;
46505;SDS011;32220;49.808;9.968;2024-03-06T12:24:04;14.80;;;10.33;;
46505;SDS011;32220;49.808;9.968;2024-03-06T12:26:38;13.50;;;10.47;;
46505;SDS011;32220;49.808;9.968;2024-03-06T12:29:06;16.53;;;11.03;;
46505;SDS011;32220;49.808;9.968;2024-03-06T12:31:35;13.97;;;10.00;;
46505;SDS011;32220;49.808;9.968;2024-03-06T12:34:03;14.33;;;10.20;;
46505;SDS011;32220;49.808;9.968;2024-03-06T12:36:33;15.53;;;10.73;;
46505;SDS011;32220;49.808;9.968;2024-03-06T12:39:02;13.37;;;10.07;;
46505;SDS011;32220;49.808;9.968;2024-03-06T12:41:38;15.90;;;10.97;;
46505;SDS011;32220;49.808;9.968;2024-03-06T12:44:06;14.37;;;10.97;;
46505;SDS011;32220;49.808;9.968;2024-03-06T12:46:33;14.20;;;10.60;;
46505;SDS011;32220;49.808;9.968;2024-03-06T12:49:01;13.37;;;10.63;;
46505;SDS011;32220;49.808;9.968;2024-03-06T12:51:29;15.30;;;10.10;;
46505;SDS011;32220;49.808;9.968;2024-03-06T12:54:00;13.47;;;10.13;;
46505;SDS011;32220;49.808;9.968;2024-03-06T12:56:29;13.67;;;9.73;;
46505;SDS011;32220;49.808;9.968;2024-03-06T12:58:56;13.80;;;10.03;;
46505;SDS011;32220;49.808;9.968;2024-03-06T13:01:24;14.37;;;10.20;;
46505;SDS011;32220;49.808;9.968;2024-03-06T13:03:51;13.87;;;9.97;;
46505;SDS011;32220;49.808;9.968;2024-03-06T13:06:19;15.40;;;10.33;;
46505;SDS011;32220;49.808;9.968;2024-03-06T13:08:47;13.60;;;9.60;;
46505;SDS011;32220;49.808;9.968;2024-03-06T13:11:16;13.70;;;9.67;;
46505;SDS011;32220;49.808;9.968;2024-03-06T13:13:45;14.63;;;9.93;;
46505;SDS011;32220;49.808;9.968;2024-03-06T13:16:13;13.33;;;9.63;;
46505;SDS011;32220;49.808;9.968;2024-03-06T13:18:40;14.20;;;9.53;;
46505;SDS011;32220;49.808;9.968;2024-03-06T13:21:08;13.70;;;9.87;;
46505;SDS011;32220;49.808;9.968;2024-03-06T13:23:35;16.07;;;10.03;;
46505;SDS011;32220;49.808;9.968;2024-03-06T13:26:04;15.13;;;10.70;;
46505;SDS011;32220;49.808;9.968;2024-03-06T13:28:33;13.90;;;9.47;;
46505;SDS011;32220;49.808;9.968;2024-03-06T13:31:00;13.50;;;9.37;;
46505;SDS011;32220;49.808;9.968;2024-03-06T13:33:28;13.30;;;10.00;;
46505;SDS011;32220;49.808;9.968;2024-03-06T13:35:56;11.80;;;8.60;;
46505;SDS011;32220;49.808;9.968;2024-03-06T13:38:23;14.87;;;10.37;;
46505;SDS011;32220;49.808;9.968;2024-03-06T13:40:51;13.13;;;9.53;;
46505;SDS011;32220;49.808;9.968;2024-03-06T13:43:18;12.87;;;9.67;;
46505;SDS011;32220;49.808;9.968;2024-03-06T13:45:50;13.83;;;10.00;;
46505;SDS011;32220;49.808;9.968;2024-03-06T13:48:18;14.80;;;10.30;;
46505;SDS011;32220;49.808;9.968;2024-03-06T13:50:48;13.73;;;10.17;;
46505;SDS011;32220;49.808;9.968;2024-03-06T13:53:15;15.33;;;10.27;;
46505;SDS011;32220;49.808;9.968;2024-03-06T13:55:43;14.77;;;10.60;;
46505;SDS011;32220;49.808;9.968;2024-03-06T13:58:10;15.37;;;10.87;;
46505;SDS011;32220;49.808;9.968;2024-03-06T14:00:38;13.23;;;9.63;;
46505;SDS011;32220;49.808;9.968;2024-03-06T14:03:13;13.37;;;9.83;;
46505;SDS011;32220;49.808;9.968;2024-03-06T14:05:40;13.77;;;9.97;;
46505;SDS011;32220;49.808;9.968;2024-03-06T14:08:08;12.63;;;9.50;;
46505;SDS011;32220;49.808;9.968;2024-03-06T14:10:38;13.20;;;9.40;;
46505;SDS011;32220;49.808;9.968;2024-03-06T14:13:06;13.77;;;9.17;;
46505;SDS011;32220;49.808;9.968;2024-03-06T14:15:34;14.20;;;9.43;;
46505;SDS011;32220;49.808;9.968;2024-03-06T14:18:02;12.13;;;8.97;;
46505;SDS011;32220;49.808;9.968;2024-03-06T14:20:31;12.67;;;8.63;;
46505;SDS011;32220;49.808;9.968;2024-03-06T14:22:59;12.40;;;8.90;;
46505;SDS011;32220;49.808;9.968;2024-03-06T14:25:26;10.77;;;8.63;;
46505;SDS011;32220;49.808;9.968;2024-03-06T14:27:55;12.30;;;8.70;;
46505;SDS011;32220;49.808;9.968;2024-03-06T14:30:23;11.60;;;8.80;;
46505;SDS011;32220;49.808;9.968;2024-03-06T14:32:50;12.67;;;9.90;;
46505;SDS011;32220;49.808;9.968;2024-03-06T14:35:18;11.17;;;8.40;;
46505;SDS011;32220;49.808;9.968;2024-03-06T14:37:46;11.20;;;8.63;;
46505;SDS011;32220;49.808;9.968;2024-03-06T14:40:15;12.40;;;8.90;;
46505;SDS011;32220;49.808;9.968;2024-03-06T14:42:42;13.47;;;9.87;;
46505;SDS011;32220;49.808;9.968;2024-03-06T14:45:10;10.50;;;8.23;;
46505;SDS011;32220;49.808;9.968;2024-03-06T14:47:37;9.63;;;7.63;;
46505;SDS011;32220;49.808;9.968;2024-03-06T14:50:05;10.97;;;8.33;;
46505;SDS011;32220;49.808;9.968;2024-03-06T14:52:33;10.87;;;8.73;;
46505;SDS011;32220;49.808;9.968;2024-03-06T14:55:03;15.10;;;9.73;;
46505;SDS011;32220;49.808;9.968;2024-03-06T14:57:34;11.13;;;8.20;;
46505;SDS011;32220;49.808;9.968;2024-03-06T15:00:02;13.47;;;8.87;;
46505;SDS011;32220;49.808;9.968;2024-03-06T15:02:32;11.47;;;8.90;;
46505;SDS011;32220;49.808;9.968;2024-03-06T15:05:00;11.43;;;8.87;;
46505;SDS011;32220;49.808;9.968;2024-03-06T15:07:28;14.40;;;9.80;;
46505;SDS011;32220;49.808;9.968;2024-03-06T15:09:56;12.10;;;8.77;;
46505;SDS011;32220;49.808;9.968;2024-03-06T15:12:26;14.03;;;9.97;;
46505;SDS011;32220;49.808;9.968;2024-03-06T15:14:54;14.60;;;9.87;;
46505;SDS011;32220;49.808;9.968;2024-03-06T15:17:22;12.10;;;8.93;;
46505;SDS011;32220;49.808;9.968;2024-03-06T15:19:51;13.73;;;10.13;;
46505;SDS011;32220;49.808;9.968;2024-03-06T15:22:19;12.03;;;9.13;;
46505;SDS011;32220;49.808;9.968;2024-03-06T15:24:46;16.27;;;10.67;;
46505;SDS011;32220;49.808;9.968;2024-03-06T15:27:15;14.03;;;10.60;;
46505;SDS011;32220;49.808;9.968;2024-03-06T15:29:45;15.00;;;10.53;;
46505;SDS011;32220;49.808;9.968;2024-03-06T15:32:12;14.87;;;11.07;;
46505;SDS011;32220;49.808;9.968;2024-03-06T15:34:40;12.43;;;9.87;;
46505;SDS011;32220;49.808;9.968;2024-03-06T15:37:07;14.00;;;9.53;;
46505;SDS011;32220;49.808;9.968;2024-03-06T15:39:35;17.03;;;10.73;;
46505;SDS011;32220;49.808;9.968;2024-03-06T15:42:02;14.40;;;10.60;;
46505;SDS011;32220;49.808;9.968;2024-03-06T15:44:30;13.20;;;9.03;;
46505;SDS011;32220;49.808;9.968;2024-03-06T15:46:59;16.10;;;10.83;;
46505;SDS011;32220;49.808;9.968;2024-03-06T15:49:27;16.20;;;10.67;;
46505;SDS011;32220;49.808;9.968;2024-03-06T15:51:55;12.70;;;9.87;;
46505;SDS011;32220;49.808;9.968;2024-03-06T15:54:22;14.80;;;10.33;;
46505;SDS011;32220;49.808;9.968;2024-03-06T15:56:49;15.20;;;10.37;;
46505;SDS011;32220;49.808;9.968;2024-03-06T15:59:17;15.23;;;9.87;;
46505;SDS011;32220;49.808;9.968;2024-03-06T16:01:45;13.27;;;9.83;;
46505;SDS011;32220;49.808;9.968;2024-03-06T16:04:14;14.43;;;10.63;;
46505;SDS011;32220;49.808;9.968;2024-03-06T16:06:41;15.17;;;10.00;;
46505;SDS011;32220;49.808;9.968;2024-03-06T16:09:11;16.10;;;10.17;;
46505;SDS011;32220;49.808;9.968;2024-03-06T16:11:39;15.93;;;10.27;;
46505;SDS011;32220;49.808;9.968;2024-03-06T16:14:07;16.23;;;10.37;;
46505;SDS011;32220;49.808;9.968;2024-03-06T16:16:34;18.87;;;11.47;;
46505;SDS011;32220;49.808;9.968;2024-03-06T16:19:02;15.83;;;10.27;;
46505;SDS011;32220;49.808;9.968;2024-03-06T16:21:30;14.33;;;10.70;;
46505;SDS011;32220;49.808;9.968;2024-03-06T16:23:58;17.93;;;11.33;;
46505;SDS011;32220;49.808;9.968;2024-03-06T16:26:27;18.90;;;10.43;;
46505;SDS011;32220;49.808;9.968;2024-03-06T16:28:54;15.43;;;9.73;;
46505;SDS011;32220;49.808;9.968;2024-03-06T16:31:22;13.63;;;9.60;;
46505;SDS011;32220;49.808;9.968;2024-03-06T16:33:49;15.20;;;9.53;;
46505;SDS011;32220;49.808;9.968;2024-03-06T16:36:17;13.90;;;9.00;;
46505;SDS011;32220;49.808;9.968;2024-03-06T16:38:46;15.40;;;11.07;;
46505;SDS011;32220;49.808;9.968;2024-03-06T16:41:14;14.97;;;10.13;;
46505;SDS011;32220;49.808;9.968;2024-03-06T16:43:42;16.27;;;10.40;;
46505;SDS011;32220;49.808;9.968;2024-03-06T16:46:09;13.50;;;9.37;;
46505;SDS011;32220;49.808;9.968;2024-03-06T16:48:37;14.53;;;9.60;;
46505;SDS011;32220;49.808;9.968;2024-03-06T16:51:04;14.67;;;9.40;;
46505;SDS011;32220;49.808;9.968;2024-03-06T16:53:32;12.87;;;9.37;;
46505;SDS011;32220;49.808;9.968;2024-03-06T16:56:01;12.87;;;8.93;;
46505;SDS011;32220;49.808;9.968;2024-03-06T16:58:28;13.40;;;9.93;;
46505;SDS011;32220;49.808;9.968;2024-03-06T17:00:56;13.77;;;9.47;;
46505;SDS011;32220;49.808;9.968;2024-03-06T17:03:23;13.47;;;8.57;;
46505;SDS011;32220;49.808;9.968;2024-03-06T17:05:50;12.70;;;8.50;;
46505;SDS011;32220;49.808;9.968;2024-03-06T17:08:18;12.07;;;8.43;;
46505;SDS011;32220;49.808;9.968;2024-03-06T17:10:46;12.93;;;10.27;;
46505;SDS011;32220;49.808;9.968;2024-03-06T17:13:15;14.77;;;9.40;;
46505;SDS011;32220;49.808;9.968;2024-03-06T17:15:43;14.80;;;9.00;;
46505;SDS011;32220;49.808;9.968;2024-03-06T17:18:10;12.83;;;9.13;;
46505;SDS011;32220;49.808;9.968;2024-03-06T17:20:39;12.70;;;8.40;;
46505;SDS011;32220;49.808;9.968;2024-03-06T17:23:06;11.80;;;8.33;;
46505;SDS011;32220;49.808;9.968;2024-03-06T17:25:33;13.17;;;8.80;;
46505;SDS011;32220;49.808;9.968;2024-03-06T17:28:01;11.30;;;7.93;;
46505;SDS011;32220;49.808;9.968;2024-03-06T17:30:30;11.60;;;7.57;;
46505;SDS011;32220;49.808;9.968;2024-03-06T17:32:58;12.17;;;8.27;;
46505;SDS011;32220;49.808;9.968;2024-03-06T17:35:25;13.57;;;9.47;;
46505;SDS011;32220;49.808;9.968;2024-03-06T17:37:53;13.73;;;9.10;;
46505;SDS011;32220;49.808;9.968;2024-03-06T17:40:20;15.70;;;9.67;;
46505;SDS011;32220;49.808;9.968;2024-03-06T17:42:51;16.50;;;10.87;;
46505;SDS011;32220;49.808;9.968;2024-03-06T17:45:18;18.87;;;11.17;;
46505;SDS011;32220;49.808;9.968;2024-03-06T17:47:47;14.97;;;9.40;;
46505;SDS011;32220;49.808;9.968;2024-03-06T17:50:15;13.50;;;9.20;;
46505;SDS011;32220;49.808;9.968;2024-03-06T17:52:42;13.93;;;9.47;;
46505;SDS011;32220;49.808;9.968;2024-03-06T17:55:10;15.63;;;10.13;;
46505;SDS011;32220;49.808;9.968;2024-03-06T17:57:38;17.13;;;10.93;;
46505;SDS011;32220;49.808;9.968;2024-03-06T18:00:11;13.40;;;9.47;;
46505;SDS011;32220;49.808;9.968;2024-03-06T18:02:39;16.63;;;11.03;;
46505;SDS011;32220;49.808;9.968;2024-03-06T18:05:08;18.23;;;12.10;;
46505;SDS011;32220;49.808;9.968;2024-03-06T18:07:36;17.60;;;12.57;;
46505;SDS011;32220;49.808;9.968;2024-03-06T18:10:04;15.87;;;11.50;;
46505;SDS011;32220;49.808;9.968;2024-03-06T18:12:33;16.43;;;11.90;;
46505;SDS011;32220;49.808;9.968;2024-03-06T18:15:01;15.07;;;10.73;;
46505;SDS011;32220;49.808;9.968;2024-03-06T18:17:29;17.10;;;11.37;;
46505;SDS011;32220;49.808;9.968;2024-03-06T18:19:57;15.97;;;11.77;;
46505;SDS011;32220;49.808;9.968;2024-03-06T18:22:25;20.47;;;13.80;;
46505;SDS011;32220;49.808;9.968;2024-03-06T18:24:53;20.27;;;12.90;;
46505;SDS011;32220;49.808;9.968;2024-03-06T18:27:20;19.80;;;12.27;;
46505;SDS011;32220;49.808;9.968;2024-03-06T18:29:48;16.80;;;11.80;;
46505;SDS011;32220;49.808;9.968;2024-03-06T18:32:15;17.87;;;12.00;;
46505;SDS011;32220;49.808;9.968;2024-03-06T18:34:43;16.27;;;11.33;;
46505;SDS011;32220;49.808;9.968;2024-03-06T18:37:12;15.80;;;10.73;;
46505;SDS011;32220;49.808;9.968;2024-03-06T18:39:41;15.10;;;11.77;;
46505;SDS011;32220;49.808;9.968;2024-03-06T18:42:10;16.23;;;11.27;;
46505;SDS011;32220;49.808;9.968;2024-03-06T18:44:37;17.27;;;12.20;;
46505;SDS011;32220;49.808;9.968;2024-03-06T18:47:06;20.57;;;13.27;;
46505;SDS011;32220;49.808;9.968;2024-03-06T18:49:33;17.50;;;12.23;;
46505;SDS011;32220;49.808;9.968;2024-03-06T18:52:01;16.70;;;11.70;;
46505;SDS011;32220;49.808;9.968;2024-03-06T18:54:28;18.83;;;13.03;;
46505;SDS011;32220;49.808;9.968;2024-03-06T18:56:57;19.60;;;13.40;;
46505;SDS011;32220;49.808;9.968;2024-03-06T18:59:25;21.17;;;13.80;;
46505;SDS011;32220;49.808;9.968;2024-03-06T19:01:52;18.33;;;13.80;;
46505;SDS011;32220;49.808;9.968;2024-03-06T19:04:20;21.87;;;15.33;;
46505;SDS011;32220;49.808;9.968;2024-03-06T19:06:48;20.73;;;14.10;;
46505;SDS011;32220;49.808;9.968;2024-03-06T19:09:16;21.77;;;14.03;;
46505;SDS011;32220;49.808;9.968;2024-03-06T19:11:44;18.57;;;13.80;;
46505;SDS011;32220;49.808;9.968;2024-03-06T19:14:15;22.93;;;16.23;;
46505;SDS011;32220;49.808;9.968;2024-03-06T19:16:42;21.33;;;15.40;;
46505;SDS011;32220;49.808;9.968;2024-03-06T19:19:10;23.43;;;14.47;;
46505;SDS011;32220;49.808;9.968;2024-03-06T19:21:38;20.87;;;14.20;;
